Terminal Aerodrome Forecast
Issued by NWS Duluth, MN

Home | Current Version | Previous Version | Graphics & Text | Print | Product List | Glossary On
Versions: 1 2 3 4 5 6 7 8 9 10 11 12 13 14 15 16 17 18
706
FTUS43 KDLH 280540
TAFINL
TAF
KINL 280540Z 2806/2906 07004KT P6SM -DZ SCT025 OVC060
     FM280800 04003KT P6SM -DZ SCT012 OVC025
     FM281100 04005KT 4SM -DZ OVC007
     FM282000 03005KT P6SM VCSH OVC015
     FM290000 VRB02KT 4SM BR VCSH SCT004 OVC007=

USA.gov is the U.S. government's official web portal to all federal, state and local government web resources and services.